createdAt,value
2023-04-04T00:00:09.633Z,102825.19
2023-04-04T00:02:38.494Z,102834.41
2023-04-04T00:04:17.363Z,102677.06
2023-04-04T00:05:08.320Z,102828.34
2023-04-04T00:07:36.722Z,102827.63
2023-04-04T00:09:32.640Z,102670.75
2023-04-04T00:10:05.410Z,102824.69
2023-04-04T00:12:35.727Z,102834.63
2023-04-04T00:14:48.367Z,102676.63
2023-04-04T00:15:06.143Z,102827.09
2023-04-04T00:17:36.185Z,102832.44
2023-04-04T00:20:03.113Z,102679.41
2023-04-04T00:20:05.196Z,102824.16
2023-04-04T00:22:33.853Z,102824.88
2023-04-04T00:25:03.173Z,102815.41
2023-04-04T00:25:18.673Z,102662.41
2023-04-04T00:27:32.505Z,102815.91
2023-04-04T00:30:02.304Z,102814.66
2023-04-04T00:30:34.373Z,102666.88
2023-04-04T00:32:32.217Z,102810.56
2023-04-04T00:35:02.277Z,102807.63
2023-04-04T00:35:50.438Z,102653.78
2023-04-04T00:37:31.006Z,102807.63
2023-04-04T00:40:00.945Z,102803.75
2023-04-04T00:41:05.402Z,102643.28
2023-04-04T00:42:30.829Z,102796.94
2023-04-04T00:45:00.644Z,102794.28
2023-04-04T00:46:20.363Z,102638.81
2023-04-04T00:47:30.896Z,102786.25
2023-04-04T00:50:01.315Z,102790.13
2023-04-04T00:51:35.652Z,102639.56
2023-04-04T00:52:31.626Z,102790.84
2023-04-04T00:55:01.374Z,102786.69
2023-04-04T00:56:51.323Z,102638.81
2023-04-04T00:57:29.417Z,102790.13
2023-04-04T00:59:57.257Z,102792.78
2023-04-04T01:02:06.395Z,102636.50
2023-04-04T01:02:27.625Z,102791.09
2023-04-04T01:04:58.079Z,102792.25
2023-04-04T01:07:21.357Z,102641.91
2023-04-04T01:07:28.155Z,102790.56
2023-04-04T01:09:57.963Z,102790.75
2023-04-04T01:12:26.379Z,102799.25
2023-04-04T01:12:36.642Z,102635.56
2023-04-04T01:14:56.108Z,102789.50
2023-04-04T01:17:26.439Z,102786.56
2023-04-04T01:17:52.404Z,102633.59
2023-04-04T01:19:56.670Z,102788.25
2023-04-04T01:22:27.482Z,102786.03
2023-04-04T01:23:07.329Z,102631.09
2023-04-04T01:24:57.464Z,102790.84
2023-04-04T01:27:27.581Z,102784.09
2023-04-04T01:28:22.329Z,102631.59
2023-04-04T01:30:02.217Z,102787.94
2023-04-04T01:32:30.592Z,102790.31
2023-04-04T01:33:37.371Z,102634.34
2023-04-04T01:34:59.558Z,102786.94
2023-04-04T01:37:28.989Z,102783.56
2023-04-04T01:38:52.323Z,102631.59
2023-04-04T01:39:59.531Z,102786.66
2023-04-04T01:42:30.184Z,102787.88
2023-04-04T01:44:08.128Z,102626.81
2023-04-04T01:45:00.117Z,102783.03
2023-04-04T01:47:33.999Z,102790.78
2023-04-04T01:49:23.126Z,102637.13
2023-04-04T01:50:05.575Z,102793.44
2023-04-04T01:52:40.582Z,102793.88
2023-04-04T01:54:38.365Z,102642.69
2023-04-04T01:55:09.811Z,102791.69
2023-04-04T01:57:40.021Z,102783.69
2023-04-04T01:59:54.342Z,102635.13
2023-04-04T02:00:10.126Z,102784.91
2023-04-04T02:02:46.043Z,102791.44
2023-04-04T02:05:10.659Z,102641.44
2023-04-04T02:05:15.682Z,102792.63
2023-04-04T02:07:44.544Z,102795.06
2023-04-04T02:10:22.449Z,102789.72
2023-04-04T02:10:26.343Z,102646.97
2023-04-04T02:12:52.654Z,102796.25
2023-04-04T02:15:24.077Z,102798.91
2023-04-04T02:15:41.358Z,102645.47
2023-04-04T02:17:55.122Z,102790.66
2023-04-04T02:20:24.124Z,102795.25
2023-04-04T02:20:56.673Z,102647.47
2023-04-04T02:22:54.470Z,102799.84
2023-04-04T02:25:24.727Z,102798.38
2023-04-04T02:26:12.312Z,102640.69
2023-04-04T02:27:55.291Z,102791.56
2023-04-04T02:30:23.595Z,102801.53
2023-04-04T02:31:27.715Z,102644.22
2023-04-04T02:32:53.633Z,102793.25
2023-04-04T02:35:23.904Z,102799.31
2023-04-04T02:36:43.323Z,102643.47
2023-04-04T02:37:54.152Z,102795.19
2023-04-04T02:40:28.009Z,102794.94
2023-04-04T02:41:59.388Z,102642.19
2023-04-04T02:42:57.037Z,102794.94
2023-04-04T02:45:27.436Z,102794.19
2023-04-04T02:47:14.391Z,102640.97
2023-04-04T02:48:17.661Z,102787.41
2023-04-04T02:50:49.620Z,102792.00
2023-04-04T02:52:29.328Z,102632.19
2023-04-04T02:53:19.849Z,102779.84
2023-04-04T02:55:52.253Z,102777.16
2023-04-04T02:57:50.371Z,102623.06
2023-04-04T02:58:22.600Z,102773.06
2023-04-04T03:00:52.900Z,102774.50
2023-04-04T03:03:05.226Z,102622.31
2023-04-04T03:03:26.008Z,102762.41
2023-04-04T03:05:55.986Z,102771.56
2023-04-04T03:08:24.369Z,102771.56
2023-04-04T03:08:25.702Z,102611.19
2023-04-04T03:10:58.080Z,102762.13
2023-04-04T03:13:28.239Z,102757.97
2023-04-04T03:13:41.704Z,102605.66
2023-04-04T03:15:58.122Z,102763.31
2023-04-04T03:18:28.655Z,102761.88
2023-04-04T03:18:57.391Z,102610.72
2023-04-04T03:20:58.358Z,102763.56
2023-04-04T03:23:28.096Z,102767.72
2023-04-04T03:24:12.690Z,102620.16
2023-04-04T03:25:59.414Z,102768.44
2023-04-04T03:28:28.347Z,102765.31
2023-04-04T03:29:28.688Z,102611.19
2023-04-04T03:30:57.911Z,102766.06
2023-04-04T03:33:26.310Z,102767.50
2023-04-04T03:34:45.420Z,102616.13
2023-04-04T03:35:56.264Z,102763.91
2023-04-04T03:38:26.176Z,102768.78
2023-04-04T03:40:00.137Z,102608.84
2023-04-04T03:40:56.427Z,102756.88
2023-04-04T03:43:26.928Z,102763.97
2023-04-04T03:45:15.357Z,102601.63
2023-04-04T03:45:56.884Z,102753.81
2023-04-04T03:48:26.704Z,102756.72
2023-04-04T03:50:30.401Z,102597.47
2023-04-04T03:50:56.520Z,102757.75
2023-04-04T03:53:26.528Z,102757.25
2023-04-04T03:55:45.669Z,102594.84
2023-04-04T03:55:56.394Z,102759.44
2023-04-04T03:58:26.272Z,102751.69
2023-04-04T04:00:56.081Z,102744.69
2023-04-04T04:01:01.347Z,102594.22
2023-04-04T04:03:29.007Z,102741.56
2023-04-04T04:06:00.160Z,102749.38
2023-04-04T04:06:16.643Z,102594.38
2023-04-04T04:08:30.053Z,102752.28
2023-04-04T04:11:01.953Z,102752.56
2023-04-04T04:11:32.353Z,102597.31
2023-04-04T04:13:32.401Z,102758.41
2023-04-04T04:16:03.491Z,102759.19
2023-04-04T04:16:47.443Z,102609.03
2023-04-04T04:18:33.824Z,102766.44
2023-04-04T04:21:03.609Z,102768.13
2023-04-04T04:22:04.330Z,102609.19
2023-04-04T04:23:34.294Z,102763.75
2023-04-04T04:26:03.983Z,102766.16
2023-04-04T04:27:19.662Z,102610.59
2023-04-04T04:28:34.637Z,102764.69
2023-04-04T04:31:10.729Z,102771.25
2023-04-04T04:32:36.751Z,102613.22
2023-04-04T04:33:46.799Z,102757.63
2023-04-04T04:36:21.501Z,102768.06
2023-04-04T04:37:53.438Z,102611.81
2023-04-04T04:39:02.113Z,102766.56
2023-04-04T04:41:36.989Z,102752.97
2023-04-04T04:43:08.126Z,102611.50
2023-04-04T04:44:08.750Z,102760.72
2023-04-04T04:46:38.860Z,102759.97
2023-04-04T04:48:23.337Z,102605.34
2023-04-04T04:49:13.907Z,102757.78
2023-04-04T04:51:45.085Z,102755.59
2023-04-04T04:53:41.679Z,102599.50
2023-04-04T04:54:16.959Z,102758.00
2023-04-04T04:56:48.965Z,102761.84
2023-04-04T04:59:00.380Z,102603.97
2023-04-04T04:59:18.921Z,102757.00
2023-04-04T05:01:49.285Z,102752.88
2023-04-04T05:04:15.409Z,102604.88
2023-04-04T05:04:17.880Z,102753.59
2023-04-04T05:06:59.612Z,102767.41
2023-04-04T05:09:29.296Z,102767.16
2023-04-04T05:09:41.379Z,102612.09
2023-04-04T05:11:58.046Z,102771.03
2023-04-04T05:14:38.013Z,102779.03
2023-04-04T05:14:56.358Z,102622.16
2023-04-04T05:17:08.248Z,102778.31
2023-04-04T05:19:38.520Z,102782.91
2023-04-04T05:20:11.710Z,102626.59
2023-04-04T05:22:06.995Z,102788.22
2023-04-04T05:24:46.254Z,102782.91
2023-04-04T05:25:31.368Z,102639.38
2023-04-04T05:27:20.502Z,102783.63
2023-04-04T05:29:55.759Z,102782.91
2023-04-04T05:30:46.390Z,102632.00
2023-04-04T05:32:28.304Z,102782.91
2023-04-04T05:35:10.381Z,102777.56
2023-04-04T05:36:05.469Z,102628.88
2023-04-04T05:37:39.341Z,102779.03
2023-04-04T05:40:10.558Z,102776.38
2023-04-04T05:41:26.753Z,102625.81
2023-04-04T05:42:39.876Z,102776.38
2023-04-04T05:45:09.621Z,102785.09
2023-04-04T05:46:50.118Z,102624.28
2023-04-04T05:47:37.987Z,102774.41
2023-04-04T05:50:08.101Z,102772.50
2023-04-04T05:52:05.390Z,102615.66
2023-04-04T05:52:39.271Z,102780.50
2023-04-04T05:55:12.641Z,102780.50
2023-04-04T05:57:20.378Z,102624.41
2023-04-04T05:57:41.562Z,102783.16
2023-04-04T06:00:11.604Z,102781.97
2023-04-04T06:02:38.463Z,102630.41
2023-04-04T06:02:42.528Z,102785.84
2023-04-04T06:05:17.782Z,102792.63
2023-04-04T06:07:48.518Z,102794.09
2023-04-04T06:07:58.429Z,102637.97
2023-04-04T06:10:18.818Z,102794.09
2023-04-04T06:12:49.218Z,102798.25
2023-04-04T06:13:13.118Z,102640.47
2023-04-04T06:15:18.694Z,102795.59
2023-04-04T06:17:48.934Z,102791.69
2023-04-04T06:18:33.324Z,102638.47
2023-04-04T06:20:19.022Z,102788.97
2023-04-04T06:22:49.605Z,102786.75
2023-04-04T06:23:48.706Z,102630.59
2023-04-04T06:25:18.719Z,102784.56
2023-04-04T06:27:49.256Z,102782.16
2023-04-04T06:29:04.404Z,102631.38
2023-04-04T06:30:18.797Z,102787.75
2023-04-04T06:32:50.681Z,102787.28
2023-04-04T06:34:21.319Z,102636.13
2023-04-04T06:35:22.157Z,102786.38
2023-04-04T06:37:58.896Z,102785.44
2023-04-04T06:39:39.369Z,102638.13
2023-04-04T06:40:28.650Z,102793.72
2023-04-04T06:42:58.945Z,102790.06
2023-04-04T06:45:02.380Z,102634.28
2023-04-04T06:45:34.559Z,102787.66
2023-04-04T06:48:04.652Z,102791.13
2023-04-04T06:50:17.664Z,102640.28
2023-04-04T06:50:35.355Z,102791.38
2023-04-04T06:53:08.000Z,102788.03
2023-04-04T06:55:33.392Z,102641.22
2023-04-04T06:55:38.323Z,102795.09
2023-04-04T06:58:07.678Z,102794.16
2023-04-04T07:00:35.892Z,102801.25
2023-04-04T07:00:48.402Z,102649.53
2023-04-04T07:03:04.024Z,102798.34
2023-04-04T07:05:32.806Z,102802.28
2023-04-04T07:06:03.703Z,102655.50
2023-04-04T07:08:01.841Z,102805.00
2023-04-04T07:10:30.613Z,102809.19
2023-04-04T07:11:19.380Z,102654.44
2023-04-04T07:13:00.941Z,102806.31
2023-04-04T07:15:31.208Z,102808.84
2023-04-04T07:16:34.400Z,102648.56
2023-04-04T07:18:01.563Z,102801.56
2023-04-04T07:20:32.213Z,102809.66
2023-04-04T07:21:49.740Z,102645.03
2023-04-04T07:23:01.636Z,102802.94
2023-04-04T07:25:31.502Z,102801.28
2023-04-04T07:27:05.412Z,102645.03
2023-04-04T07:28:11.715Z,102799.34
2023-04-04T07:30:42.738Z,102801.84
2023-04-04T07:32:21.199Z,102659.66
2023-04-04T07:33:12.280Z,102803.31
2023-04-04T07:35:41.070Z,102800.22
2023-04-04T07:37:37.359Z,102658.88
2023-04-04T07:38:11.618Z,102804.91
2023-04-04T07:40:42.205Z,102806.38
2023-04-04T07:42:52.220Z,102656.13
2023-04-04T07:43:12.805Z,102798.03
2023-04-04T07:45:43.235Z,102802.66
2023-04-04T07:48:07.402Z,102645.03
2023-04-04T07:48:13.709Z,102794.69
2023-04-04T07:50:43.194Z,102792.31
2023-04-04T07:53:12.719Z,102791.34
2023-04-04T07:53:22.415Z,102643.03
2023-04-04T07:55:43.081Z,102793.34
2023-04-04T07:58:12.910Z,102790.91
2023-04-04T07:58:37.343Z,102645.47
2023-04-04T08:00:41.425Z,102792.16
2023-04-04T08:03:11.998Z,102789.97
2023-04-04T08:03:52.903Z,102642.72
2023-04-04T08:05:42.435Z,102792.13
2023-04-04T08:08:12.737Z,102791.09
2023-04-04T08:09:08.584Z,102639.16
2023-04-04T08:10:43.145Z,102784.50
2023-04-04T08:13:13.602Z,102791.16
2023-04-04T08:14:24.416Z,102632.84
2023-04-04T08:15:44.920Z,102778.25
2023-04-04T08:18:14.922Z,102787.69
2023-04-04T08:19:39.357Z,102644.38
2023-04-04T08:20:45.286Z,102787.31
2023-04-04T08:23:15.255Z,102780.56
2023-04-04T08:24:54.376Z,102641.44
2023-04-04T08:25:44.088Z,102792.34
2023-04-04T08:28:13.843Z,102787.75
2023-04-04T08:30:09.440Z,102631.75
2023-04-04T08:30:44.236Z,102796.56
2023-04-04T08:33:14.314Z,102786.00
2023-04-04T08:35:24.427Z,102633.72
2023-04-04T08:35:42.743Z,102787.47
2023-04-04T08:38:11.525Z,102784.78
2023-04-04T08:40:39.521Z,102624.78
2023-04-04T08:40:42.157Z,102787.19
2023-04-04T08:43:12.561Z,102780.09
2023-04-04T08:45:41.247Z,102774.69
2023-04-04T08:45:55.434Z,102624.47
2023-04-04T08:48:10.682Z,102774.72
2023-04-04T08:50:40.765Z,102775.19
2023-04-04T08:51:10.377Z,102624.28
2023-04-04T08:53:09.679Z,102786.50
2023-04-04T08:55:40.003Z,102773.25
2023-04-04T08:56:25.381Z,102618.09
2023-04-04T08:58:10.340Z,102776.22
2023-04-04T09:00:40.882Z,102781.38
2023-04-04T09:01:40.408Z,102623.63
2023-04-04T09:03:10.980Z,102776.72
2023-04-04T09:05:40.069Z,102772.59
2023-04-04T09:06:55.418Z,102617.03
2023-04-04T09:08:08.846Z,102775.31
2023-04-04T09:10:39.437Z,102779.09
2023-04-04T09:12:10.480Z,102616.06
2023-04-04T09:13:16.122Z,102765.25
2023-04-04T09:15:47.274Z,102769.59
2023-04-04T09:17:26.185Z,102618.19
2023-04-04T09:20:47.039Z,102777.94
2023-04-04T09:22:41.369Z,102612.03
2023-04-04T09:23:16.099Z,102768.88
2023-04-04T09:25:52.800Z,102772.16
2023-04-04T09:27:56.485Z,102610.47
2023-04-04T09:28:29.515Z,102782.94
2023-04-04T09:30:58.887Z,102770.47
2023-04-04T09:33:11.679Z,102618.03
2023-04-04T09:33:29.125Z,102774.94
2023-04-04T09:35:59.498Z,102778.16
2023-04-04T09:38:27.424Z,102613.25
2023-04-04T09:38:29.556Z,102769.63
2023-04-04T09:40:58.191Z,102773.34
2023-04-04T09:43:26.946Z,102765.34
2023-04-04T09:43:42.356Z,102607.72
2023-04-04T09:45:57.245Z,102767.06
2023-04-04T09:48:27.170Z,102761.22
2023-04-04T09:48:57.415Z,102606.47
2023-04-04T09:50:56.521Z,102766.19
2023-04-04T09:53:26.386Z,102762.88
2023-04-04T09:54:22.286Z,102603.41
2023-04-04T09:55:55.511Z,102756.31
2023-04-04T09:58:24.362Z,102755.03
2023-04-04T09:59:44.382Z,102598.94
2023-04-04T10:00:54.193Z,102751.44
2023-04-04T10:03:23.566Z,102758.75
2023-04-04T10:05:05.722Z,102599.41
2023-04-04T10:05:54.044Z,102759.09
2023-04-04T10:08:24.317Z,102752.16
2023-04-04T10:10:21.406Z,102593.53
2023-04-04T10:11:08.939Z,102752.06
2023-04-04T10:13:39.730Z,102763.78
2023-04-04T10:15:36.420Z,102597.84
2023-04-04T10:16:09.665Z,102745.41
2023-04-04T10:18:39.115Z,102750.19
2023-04-04T10:20:52.550Z,102589.84
2023-04-04T10:23:40.777Z,102747.00
2023-04-04T10:26:10.396Z,102583.09
2023-04-04T10:26:10.981Z,102740.41
2023-04-04T10:28:39.676Z,102736.44
2023-04-04T10:31:10.032Z,102739.00
2023-04-04T10:31:25.576Z,102581.84
2023-04-04T10:33:40.453Z,102736.75
2023-04-04T10:36:09.967Z,102732.03
2023-04-04T10:36:41.205Z,102573.06
2023-04-04T10:38:40.638Z,102730.22
2023-04-04T10:41:11.053Z,102727.63
2023-04-04T10:41:56.416Z,102572.31
2023-04-04T10:43:41.102Z,102728.09
2023-04-04T10:46:09.865Z,102723.94
2023-04-04T10:47:11.456Z,102560.31
2023-04-04T10:48:40.300Z,102715.47
2023-04-04T10:51:09.359Z,102712.09
2023-04-04T10:52:26.378Z,102556.63
2023-04-04T10:53:39.224Z,102722.47
2023-04-04T10:56:08.595Z,102716.16
2023-04-04T10:57:41.166Z,102552.19
2023-04-04T10:58:39.300Z,102716.56
2023-04-04T11:01:08.603Z,102704.09
2023-04-04T11:02:56.430Z,102543.72
2023-04-04T11:03:38.031Z,102715.91
2023-04-04T11:06:08.436Z,102707.25
2023-04-04T11:08:11.380Z,102544.81
2023-04-04T11:08:38.096Z,102708.00
2023-04-04T11:11:19.960Z,102703.38
2023-04-04T11:13:26.419Z,102537.25
2023-04-04T11:13:52.751Z,102695.81
2023-04-04T11:16:23.294Z,102706.41
2023-04-04T11:18:41.148Z,102537.25
2023-04-04T11:18:53.355Z,102697.75
2023-04-04T11:21:22.102Z,102701.06
2023-04-04T11:23:52.449Z,102689.53
2023-04-04T11:23:56.421Z,102521.06
2023-04-04T11:26:22.771Z,102695.00
2023-04-04T11:28:53.135Z,102686.00
2023-04-04T11:29:11.371Z,102519.44
2023-04-04T11:31:23.468Z,102693.44
2023-04-04T11:33:53.806Z,102694.19
2023-04-04T11:34:26.382Z,102520.94
2023-04-04T11:36:24.124Z,102683.94
2023-04-04T11:38:54.447Z,102681.78
2023-04-04T11:39:41.394Z,102520.16
2023-04-04T11:41:24.654Z,102682.53
2023-04-04T11:43:52.964Z,102677.84
2023-04-04T11:44:56.389Z,102510.63
2023-04-04T11:46:21.929Z,102670.63
2023-04-04T11:48:52.306Z,102670.09
2023-04-04T11:50:11.494Z,102502.16
2023-04-04T11:51:22.816Z,102669.56
2023-04-04T11:53:51.840Z,102666.34
2023-04-04T11:55:26.702Z,102500.16
2023-04-04T11:56:21.265Z,102665.06
2023-04-04T11:59:01.627Z,102664.94
2023-04-04T12:00:42.411Z,102497.69
2023-04-04T12:01:38.764Z,102668.16
2023-04-04T12:04:08.091Z,102657.91
2023-04-04T12:05:57.477Z,102485.81
2023-04-04T12:06:38.415Z,102653.91
2023-04-04T12:09:08.749Z,102644.34
2023-04-04T12:11:12.422Z,102476.28
2023-04-04T12:11:39.632Z,102643.81
2023-04-04T12:14:10.066Z,102650.28
2023-04-04T12:16:27.524Z,102472.59
2023-04-04T12:16:39.914Z,102637.13
2023-04-04T12:19:10.218Z,102634.97
2023-04-04T12:21:39.736Z,102642.34
2023-04-04T12:21:42.691Z,102468.47
2023-04-04T12:24:07.930Z,102634.59
2023-04-04T12:26:36.847Z,102630.44
2023-04-04T12:26:58.382Z,102473.53
2023-04-04T12:29:05.923Z,102621.22
2023-04-04T12:31:34.689Z,102622.69
2023-04-04T12:32:13.401Z,102452.13
2023-04-04T12:34:04.924Z,102611.88
2023-04-04T12:36:35.207Z,102622.34
2023-04-04T12:37:28.391Z,102451.38
2023-04-04T12:39:05.473Z,102617.28
2023-04-04T12:41:35.329Z,102612.56
2023-04-04T12:42:43.545Z,102449.97
2023-04-04T12:44:04.671Z,102607.53
2023-04-04T12:46:35.026Z,102609.34
2023-04-04T12:47:59.418Z,102440.25
2023-04-04T12:49:05.356Z,102604.63
2023-04-04T12:51:35.821Z,102603.34
2023-04-04T12:53:27.871Z,102433.50
2023-04-04T12:54:06.249Z,102595.00
2023-04-04T12:56:36.694Z,102596.53
2023-04-04T12:58:45.712Z,102432.84
2023-04-04T12:59:06.148Z,102598.22
2023-04-04T13:01:36.923Z,102590.00
2023-04-04T13:04:02.430Z,102422.53
2023-04-04T13:04:06.695Z,102575.06
2023-04-04T13:06:35.610Z,102578.94
2023-04-04T13:09:04.684Z,102579.13
2023-04-04T13:09:17.436Z,102420.09
2023-04-04T13:11:35.143Z,102581.03
2023-04-04T13:14:05.093Z,102569.22
2023-04-04T13:14:32.379Z,102415.78
2023-04-04T13:16:34.619Z,102572.75
2023-04-04T13:19:05.001Z,102570.06
2023-04-04T13:19:47.425Z,102394.81
2023-04-04T13:21:35.457Z,102561.13
2023-04-04T13:24:04.808Z,102561.47
2023-04-04T13:25:02.356Z,102391.63
2023-04-04T13:26:35.180Z,102557.03
2023-04-04T13:29:03.896Z,102547.56
2023-04-04T13:30:17.202Z,102390.22
2023-04-04T13:31:32.199Z,102547.25
2023-04-04T13:34:01.193Z,102540.47
2023-04-04T13:35:32.402Z,102379.47
2023-04-04T13:36:30.639Z,102540.59
2023-04-04T13:39:01.115Z,102540.09
2023-04-04T13:40:47.418Z,102374.66
2023-04-04T13:41:31.392Z,102530.94
2023-04-04T13:44:01.677Z,102523.63
2023-04-04T13:46:02.416Z,102369.56
2023-04-04T13:46:32.528Z,102533.50
2023-04-04T13:49:02.222Z,102532.69
2023-04-04T13:51:17.380Z,102370.50
2023-04-04T13:51:32.746Z,102530.44
2023-04-04T13:54:02.154Z,102532.69
2023-04-04T13:56:31.831Z,102519.75
2023-04-04T13:56:32.383Z,102358.78
2023-04-04T13:59:00.288Z,102519.59
2023-04-04T14:01:29.040Z,102512.44
2023-04-04T14:01:47.519Z,102351.06
2023-04-04T14:03:59.134Z,102513.47
2023-04-04T14:06:29.880Z,102508.59
2023-04-04T14:07:02.407Z,102345.09
2023-04-04T14:09:00.228Z,102498.97
2023-04-04T14:11:30.546Z,102505.19
2023-04-04T14:12:17.476Z,102330.88
2023-04-04T14:14:01.378Z,102509.91
2023-04-04T14:16:31.859Z,102493.03
2023-04-04T14:17:32.452Z,102325.34
2023-04-04T14:19:02.222Z,102491.41
2023-04-04T14:21:32.309Z,102489.63
2023-04-04T14:22:47.190Z,102323.84
2023-04-04T14:24:00.906Z,102491.03
2023-04-04T14:26:29.092Z,102483.91
2023-04-04T14:28:02.159Z,102319.66
2023-04-04T14:28:57.887Z,102488.44
2023-04-04T14:31:27.859Z,102483.19
2023-04-04T14:33:17.415Z,102316.44
2023-04-04T14:33:59.687Z,102482.25
2023-04-04T14:36:29.874Z,102491.06
2023-04-04T14:38:32.413Z,102309.22
2023-04-04T14:38:58.655Z,102474.94
2023-04-04T14:41:28.948Z,102466.34
2023-04-04T14:43:47.157Z,102309.50
2023-04-04T14:43:59.242Z,102465.44
2023-04-04T14:46:29.560Z,102468.78
2023-04-04T14:48:59.852Z,102451.31
2023-04-04T14:49:02.171Z,102300.72
2023-04-04T14:51:30.221Z,102459.31
2023-04-04T14:54:00.461Z,102461.25
2023-04-04T14:54:55.452Z,102288.88
2023-04-04T14:56:30.860Z,102450.00
2023-04-04T14:59:01.317Z,102452.97
2023-04-04T15:00:10.401Z,102287.81
2023-04-04T15:01:31.685Z,102453.97
2023-04-04T15:04:02.121Z,102451.69
2023-04-04T15:05:25.233Z,102280.72
2023-04-04T15:06:32.564Z,102452.50
2023-04-04T15:09:04.179Z,102443.28
2023-04-04T15:10:40.571Z,102284.28
2023-04-04T15:11:32.897Z,102443.16
2023-04-04T15:14:01.637Z,102438.03
2023-04-04T15:15:56.419Z,102272.06
2023-04-04T15:16:31.621Z,102440.28
2023-04-04T15:19:01.919Z,102441.78
2023-04-04T15:21:11.185Z,102277.34
2023-04-04T15:21:32.326Z,102437.38
2023-04-04T15:24:02.835Z,102435.88
2023-04-04T15:26:26.401Z,102272.06
2023-04-04T15:26:36.204Z,102443.13
2023-04-04T15:29:06.492Z,102441.63
2023-04-04T15:31:36.203Z,102439.38
2023-04-04T15:31:41.277Z,102272.84
2023-04-04T15:34:05.503Z,102442.47
2023-04-04T15:36:35.903Z,102442.94
2023-04-04T15:36:56.422Z,102277.19
2023-04-04T15:39:05.416Z,102436.69
2023-04-04T15:41:35.738Z,102441.47
2023-04-04T15:42:11.542Z,102271.47
2023-04-04T15:44:06.041Z,102430.63
2023-04-04T15:46:36.437Z,102432.19
2023-04-04T15:47:26.701Z,102271.00
2023-04-04T15:49:05.862Z,102423.50
2023-04-04T15:51:35.945Z,102423.59
2023-04-04T15:52:42.429Z,102263.47
2023-04-04T15:54:04.779Z,102412.94
2023-04-04T15:56:33.064Z,102413.78
2023-04-04T15:57:57.734Z,102250.38
2023-04-04T15:59:05.592Z,102407.75
2023-04-04T16:01:35.098Z,102404.47
2023-04-04T16:03:13.516Z,102244.50
2023-04-04T16:04:04.960Z,102395.03
2023-04-04T16:06:33.997Z,102405.91
2023-04-04T16:08:28.855Z,102230.38
2023-04-04T16:09:02.406Z,102393.25
2023-04-04T16:11:31.116Z,102398.75
2023-04-04T16:13:44.374Z,102228.84
2023-04-04T16:14:00.934Z,102390.78
2023-04-04T16:16:30.355Z,102389.66
2023-04-04T16:18:59.417Z,102230.38
2023-04-04T16:19:00.668Z,102396.03
2023-04-04T16:21:31.001Z,102394.88
2023-04-04T16:24:00.843Z,102394.44
2023-04-04T16:24:14.728Z,102227.88
2023-04-04T16:26:29.755Z,102391.16
2023-04-04T16:28:59.407Z,102383.91
2023-04-04T16:29:30.452Z,102222.66
2023-04-04T16:31:32.117Z,102382.75
2023-04-04T16:34:02.571Z,102386.97
2023-04-04T16:34:45.624Z,102221.44
2023-04-04T16:36:32.650Z,102387.28
2023-04-04T16:39:01.402Z,102387.56
2023-04-04T16:40:00.814Z,102227.72
2023-04-04T16:41:31.831Z,102381.75
2023-04-04T16:44:01.912Z,102380.63
2023-04-04T16:45:16.440Z,102217.09
2023-04-04T16:46:30.746Z,102374.09
2023-04-04T16:48:59.628Z,102372.19
2023-04-04T16:50:31.440Z,102214.34
2023-04-04T16:51:28.567Z,102367.41
2023-04-04T16:53:57.407Z,102377.03
2023-04-04T16:55:46.220Z,102209.78
2023-04-04T16:56:25.941Z,102372.94
2023-04-04T16:58:55.344Z,102368.16
2023-04-04T17:01:01.452Z,102211.41
2023-04-04T17:01:25.856Z,102368.53
2023-04-04T17:03:55.845Z,102366.88
2023-04-04T17:06:16.478Z,102214.63
2023-04-04T17:06:24.132Z,102371.59
2023-04-04T17:08:53.483Z,102362.88
2023-04-04T17:11:23.852Z,102371.94
2023-04-04T17:11:31.432Z,102211.22
2023-04-04T17:13:54.252Z,102370.06
2023-04-04T17:16:23.638Z,102364.03
2023-04-04T17:16:46.460Z,102205.91
2023-04-04T17:18:53.587Z,102360.91
2023-04-04T17:21:23.018Z,102363.38
2023-04-04T17:22:01.713Z,102210.47
2023-04-04T17:23:52.424Z,102359.00
2023-04-04T17:26:22.691Z,102368.09
2023-04-04T17:27:17.390Z,102214.13
2023-04-04T17:28:52.992Z,102363.69
2023-04-04T17:31:22.802Z,102358.13
2023-04-04T17:32:32.411Z,102210.66
2023-04-04T17:33:51.765Z,102375.22
2023-04-04T17:36:21.316Z,102369.41
2023-04-04T17:37:47.710Z,102213.09
2023-04-04T17:38:51.253Z,102370.44
2023-04-04T17:41:21.605Z,102367.50
2023-04-04T17:43:03.433Z,102216.47
2023-04-04T17:43:51.857Z,102369.97
2023-04-04T17:46:22.232Z,102369.53
2023-04-04T17:48:18.463Z,102211.53
2023-04-04T17:48:52.539Z,102361.28
2023-04-04T17:51:22.781Z,102371.56
2023-04-04T17:53:33.698Z,102212.28
2023-04-04T17:53:53.054Z,102365.75
2023-04-04T17:56:23.547Z,102363.81
2023-04-04T17:58:50.759Z,102210.84
2023-04-04T17:58:53.258Z,102370.19
2023-04-04T18:01:23.692Z,102368.53
2023-04-04T18:03:53.643Z,102369.72
2023-04-04T18:04:07.423Z,102216.41
2023-04-04T18:06:22.226Z,102369.28
2023-04-04T18:08:51.002Z,102363.72
2023-04-04T18:09:22.415Z,102207.13
2023-04-04T18:11:21.355Z,102372.75
2023-04-04T18:13:51.793Z,102368.38
2023-04-04T18:14:37.394Z,102208.94
2023-04-04T18:16:21.794Z,102361.34
2023-04-04T18:18:52.195Z,102370.38
2023-04-04T18:19:52.439Z,102212.00
2023-04-04T18:21:22.488Z,102364.78
2023-04-04T18:23:52.878Z,102368.47
2023-04-04T18:25:07.172Z,102212.31
2023-04-04T18:26:23.201Z,102376.53
2023-04-04T18:28:53.197Z,102373.38
2023-04-04T18:30:22.181Z,102218.94
2023-04-04T18:31:21.557Z,102378.53
2023-04-04T18:33:51.230Z,102378.25
2023-04-04T18:35:37.473Z,102225.53
2023-04-04T18:36:19.984Z,102378.53
2023-04-04T18:38:50.347Z,102381.75
2023-04-04T18:40:52.168Z,102223.06
2023-04-04T18:41:20.288Z,102373.47
2023-04-04T18:43:49.677Z,102377.38
2023-04-04T18:46:07.224Z,102221.81
2023-04-04T18:46:20.065Z,102381.28
2023-04-04T18:48:49.962Z,102387.63
2023-04-04T18:51:23.698Z,102233.22
2023-04-04T18:51:23.828Z,102394.44
2023-04-04T18:53:54.301Z,102393.00
2023-04-04T18:56:24.641Z,102386.19
2023-04-04T18:56:39.449Z,102234.00
2023-04-04T18:58:54.949Z,102396.91
2023-04-04T19:01:24.857Z,102393.97
2023-04-04T19:01:54.797Z,102247.69
2023-04-04T19:03:54.325Z,102394.97
2023-04-04T19:06:24.672Z,102396.22
2023-04-04T19:07:10.442Z,102243.69
2023-04-04T19:08:55.018Z,102385.25
2023-04-04T19:11:25.340Z,102394.50
2023-04-04T19:12:25.219Z,102252.00
2023-04-04T19:13:55.579Z,102405.94
2023-04-04T19:16:25.387Z,102403.00
2023-04-04T19:17:40.432Z,102256.03
2023-04-04T19:18:54.621Z,102409.63
2023-04-04T19:21:24.841Z,102406.69
2023-04-04T19:22:55.441Z,102249.25
2023-04-04T19:23:55.214Z,102408.91
2023-04-04T19:26:25.527Z,102408.22